sensor_id;sensor_type;location;lat;lon;timestamp;pressure;altitude;pressure_sealevel;temperature;humidity
71764;BME280;59602;52.142;5.408;2023-06-26T01:12:01;101283.09;;;22.49;70.12
71764;BME280;59602;52.142;5.408;2023-06-26T01:15:15;101281.41;;;22.52;69.77
71764;BME280;59602;52.142;5.408;2023-06-26T01:31:02;101309.00;;;22.77;66.93
71764;BME280;59602;52.142;5.408;2023-06-26T01:34:04;101308.53;;;22.79;66.82
71764;BME280;59602;52.142;5.408;2023-06-26T01:36:55;101305.00;;;22.78;66.89
71764;BME280;59602;52.142;5.408;2023-06-26T01:46:24;101312.38;;;22.82;65.84
71764;BME280;59602;52.142;5.408;2023-06-26T01:49:12;101313.81;;;22.86;64.91
71764;BME280;59602;52.142;5.408;2023-06-26T01:52:42;101312.91;;;22.89;64.26
71764;BME280;59602;52.142;5.408;2023-06-26T01:58:38;101310.47;;;22.91;62.93
71764;BME280;59602;52.142;5.408;2023-06-26T02:01:28;101305.34;;;22.90;63.70
71764;BME280;59602;52.142;5.408;2023-06-26T03:13:03;101350.00;;;22.26;66.89
71764;BME280;59602;52.142;5.408;2023-06-26T03:15:31;101348.16;;;22.23;66.62
71764;BME280;59602;52.142;5.408;2023-06-26T03:18:01;101344.63;;;22.22;67.18
71764;BME280;59602;52.142;5.408;2023-06-26T03:20:31;101357.69;;;22.22;67.58
71764;BME280;59602;52.142;5.408;2023-06-26T03:23:01;101353.00;;;22.18;67.34
71764;BME280;59602;52.142;5.408;2023-06-26T03:25:48;101348.69;;;22.17;67.82
71764;BME280;59602;52.142;5.408;2023-06-26T03:28:16;101355.44;;;22.16;67.93
71764;BME280;59602;52.142;5.408;2023-06-26T03:30:45;101349.78;;;22.20;68.12
71764;BME280;59602;52.142;5.408;2023-06-26T03:33:12;101361.00;;;22.16;67.71
71764;BME280;59602;52.142;5.408;2023-06-26T03:38:37;101352.59;;;22.07;68.12
71764;BME280;59602;52.142;5.408;2023-06-26T03:41:10;101351.72;;;22.10;68.37
71764;BME280;59602;52.142;5.408;2023-06-26T03:43:57;101354.69;;;22.16;68.24
71764;BME280;59602;52.142;5.408;2023-06-26T03:46:24;101371.88;;;22.11;68.62
71764;BME280;59602;52.142;5.408;2023-06-26T03:51:52;101376.53;;;22.01;68.40
71764;BME280;59602;52.142;5.408;2023-06-26T04:09:32;101408.78;;;21.82;67.35
71764;BME280;59602;52.142;5.408;2023-06-26T04:11:59;101411.56;;;21.82;67.57
71764;BME280;59602;52.142;5.408;2023-06-26T04:14:27;101418.88;;;21.76;68.22
71764;BME280;59602;52.142;5.408;2023-06-26T04:16:59;101417.44;;;21.71;67.62
71764;BME280;59602;52.142;5.408;2023-06-26T04:19:29;101418.00;;;21.66;68.27
71764;BME280;59602;52.142;5.408;2023-06-26T04:25:10;101422.28;;;21.67;68.24
71764;BME280;59602;52.142;5.408;2023-06-26T04:27:41;101423.72;;;21.72;68.63
71764;BME280;59602;52.142;5.408;2023-06-26T04:30:09;101424.19;;;21.70;68.22
71764;BME280;59602;52.142;5.408;2023-06-26T04:32:52;101420.09;;;21.75;67.79
71764;BME280;59602;52.142;5.408;2023-06-26T04:35:19;101418.53;;;21.74;68.09
71764;BME280;59602;52.142;5.408;2023-06-26T04:37:47;101431.94;;;21.75;68.12
71764;BME280;59602;52.142;5.408;2023-06-26T04:43:08;101437.47;;;21.75;67.61
71764;BME280;59602;52.142;5.408;2023-06-26T04:45:56;101445.09;;;21.71;67.76
71764;BME280;59602;52.142;5.408;2023-06-26T04:48:23;101440.47;;;21.68;67.96
71764;BME280;59602;52.142;5.408;2023-06-26T04:51:25;101449.53;;;21.69;67.84
71764;BME280;59602;52.142;5.408;2023-06-26T04:54:10;101469.69;;;21.69;68.00
71764;BME280;59602;52.142;5.408;2023-06-26T11:06:26;101877.56;;;23.54;48.53
71764;BME280;59602;52.142;5.408;2023-06-26T11:09:53;101888.78;;;23.63;49.41
71764;BME280;59602;52.142;5.408;2023-06-26T11:27:41;101895.69;;;23.59;48.02
71764;BME280;59602;52.142;5.408;2023-06-26T11:30:51;101908.47;;;23.69;47.63
71764;BME280;59602;52.142;5.408;2023-06-26T11:33:59;101905.13;;;23.74;47.52
71764;BME280;59602;52.142;5.408;2023-06-26T11:37:16;101909.78;;;23.77;46.90
71764;BME280;59602;52.142;5.408;2023-06-26T11:54:57;101939.25;;;23.88;45.94
71764;BME280;59602;52.142;5.408;2023-06-26T12:02:37;101937.81;;;23.96;46.02
71764;BME280;59602;52.142;5.408;2023-06-26T12:20:44;101975.59;;;23.80;44.05
71764;BME280;59602;52.142;5.408;2023-06-26T12:27:35;101968.22;;;23.87;44.23
71764;BME280;59602;52.142;5.408;2023-06-26T12:33:56;101968.66;;;23.72;44.05
71764;BME280;59602;52.142;5.408;2023-06-26T12:40:00;101976.13;;;23.75;44.97
71764;BME280;59602;52.142;5.408;2023-06-26T12:42:33;101976.13;;;23.75;43.69
71764;BME280;59602;52.142;5.408;2023-06-26T12:48:42;101975.69;;;23.77;44.63
71764;BME280;59602;52.142;5.408;2023-06-26T12:51:19;101984.44;;;23.75;44.23
71764;BME280;59602;52.142;5.408;2023-06-26T12:53:59;101980.69;;;23.82;44.95
71764;BME280;59602;52.142;5.408;2023-06-26T12:56:39;101993.56;;;24.01;44.71
71764;BME280;59602;52.142;5.408;2023-06-26T12:59:45;101991.03;;;24.07;43.85
71764;BME280;59602;52.142;5.408;2023-06-26T13:38:51;102006.91;;;24.32;44.42
71764;BME280;59602;52.142;5.408;2023-06-26T14:17:49;102026.69;;;24.34;42.90
71764;BME280;59602;52.142;5.408;2023-06-26T15:07:03;102028.56;;;24.37;43.36
71764;BME280;59602;52.142;5.408;2023-06-26T15:17:26;102034.25;;;24.34;41.67
71764;BME280;59602;52.142;5.408;2023-06-26T15:24:14;102033.03;;;24.48;41.54
71764;BME280;59602;52.142;5.408;2023-06-26T15:27:05;102034.91;;;24.51;41.66
71764;BME280;59602;52.142;5.408;2023-06-26T15:34:24;102035.38;;;24.23;42.95
71764;BME280;59602;52.142;5.408;2023-06-26T15:36:46;102036.69;;;24.19;43.49
71764;BME280;59602;52.142;5.408;2023-06-26T15:39:12;102032.25;;;24.21;42.75
71764;BME280;59602;52.142;5.408;2023-06-26T15:41:39;102037.25;;;24.27;43.52
71764;BME280;59602;52.142;5.408;2023-06-26T15:44:07;102033.69;;;24.39;43.03
71764;BME280;59602;52.142;5.408;2023-06-26T15:46:36;102026.34;;;24.45;42.04
71764;BME280;59602;52.142;5.408;2023-06-26T15:49:03;102021.91;;;24.48;41.01
71764;BME280;59602;52.142;5.408;2023-06-26T15:51:31;102025.78;;;24.50;43.08
71764;BME280;59602;52.142;5.408;2023-06-26T15:54:00;102031.03;;;24.48;41.61
71764;BME280;59602;52.142;5.408;2023-06-26T15:59:15;102039.78;;;24.47;42.51
71764;BME280;59602;52.142;5.408;2023-06-26T16:01:45;102034.03;;;24.54;42.53
71764;BME280;59602;52.142;5.408;2023-06-26T16:04:14;102035.34;;;24.49;42.06
71764;BME280;59602;52.142;5.408;2023-06-26T16:06:55;102026.34;;;24.32;41.23
71764;BME280;59602;52.142;5.408;2023-06-26T16:09:24;102035.13;;;24.31;42.67
71764;BME280;59602;52.142;5.408;2023-06-26T16:11:53;102040.59;;;24.34;42.21
71764;BME280;59602;52.142;5.408;2023-06-26T16:14:20;102033.69;;;24.39;42.34
71764;BME280;59602;52.142;5.408;2023-06-26T16:16:48;102038.47;;;24.38;42.15
71764;BME280;59602;52.142;5.408;2023-06-26T16:19:38;102040.34;;;24.29;41.63
71764;BME280;59602;52.142;5.408;2023-06-26T16:22:05;102033.59;;;24.17;41.84
71764;BME280;59602;52.142;5.408;2023-06-26T16:24:34;102029.13;;;24.19;42.68
71764;BME280;59602;52.142;5.408;2023-06-26T16:27:01;102023.25;;;24.17;42.91
71764;BME280;59602;52.142;5.408;2023-06-26T16:29:52;102023.38;;;24.14;42.47
71764;BME280;59602;52.142;5.408;2023-06-26T16:32:19;102023.56;;;24.19;41.84
71764;BME280;59602;52.142;5.408;2023-06-26T16:34:46;102028.81;;;24.30;42.45
71764;BME280;59602;52.142;5.408;2023-06-26T16:37:15;102032.78;;;24.42;41.33
71764;BME280;59602;52.142;5.408;2023-06-26T16:39:44;102032.69;;;24.45;41.55
71764;BME280;59602;52.142;5.408;2023-06-26T16:51:33;102030.13;;;24.26;41.98
71764;BME280;59602;52.142;5.408;2023-06-26T16:54:52;102037.47;;;24.19;41.86
71764;BME280;59602;52.142;5.408;2023-06-26T16:58:01;102038.16;;;24.23;42.18
71764;BME280;59602;52.142;5.408;2023-06-26T17:00:50;102036.59;;;24.10;41.96
71764;BME280;59602;52.142;5.408;2023-06-26T17:03:45;102030.69;;;24.08;41.75
71764;BME280;59602;52.142;5.408;2023-06-26T17:06:14;102022.69;;;24.10;41.73
71764;BME280;59602;52.142;5.408;2023-06-26T17:08:44;102023.13;;;24.21;41.89
71764;BME280;59602;52.142;5.408;2023-06-26T17:11:25;102040.25;;;24.19;42.27
71764;BME280;59602;52.142;5.408;2023-06-26T17:16:42;102033.59;;;24.17;41.57
71764;BME280;59602;52.142;5.408;2023-06-26T17:19:25;102041.34;;;24.22;41.91
71764;BME280;59602;52.142;5.408;2023-06-26T17:21:55;102035.03;;;24.21;42.08
71764;BME280;59602;52.142;5.408;2023-06-26T17:24:24;102041.25;;;24.13;41.86
71764;BME280;59602;52.142;5.408;2023-06-26T17:29:41;102056.81;;;24.10;43.00
71764;BME280;59602;52.142;5.408;2023-06-26T17:32:08;102050.81;;;23.99;42.66
71764;BME280;59602;52.142;5.408;2023-06-26T17:34:47;102048.47;;;23.97;42.91
71764;BME280;59602;52.142;5.408;2023-06-26T17:37:23;102047.28;;;23.98;43.23
71764;BME280;59602;52.142;5.408;2023-06-26T17:39:54;102048.38;;;24.01;42.49
71764;BME280;59602;52.142;5.408;2023-06-26T17:42:40;102056.50;;;24.08;43.03
71764;BME280;59602;52.142;5.408;2023-06-26T17:45:31;102057.59;;;23.98;43.29
71764;BME280;59602;52.142;5.408;2023-06-26T17:51:04;102063.72;;;24.06;42.85
71764;BME280;59602;52.142;5.408;2023-06-26T17:53:44;102065.94;;;23.98;43.02
71764;BME280;59602;52.142;5.408;2023-06-26T17:56:12;102071.16;;;23.96;43.45
71764;BME280;59602;52.142;5.408;2023-06-26T17:59:04;102062.69;;;23.99;43.64
71764;BME280;59602;52.142;5.408;2023-06-26T18:02:12;102068.59;;;24.01;42.37
71764;BME280;59602;52.142;5.408;2023-06-26T18:05:13;102068.69;;;23.85;43.37
71764;BME280;59602;52.142;5.408;2023-06-26T18:08:02;102069.47;;;23.86;43.85
71764;BME280;59602;52.142;5.408;2023-06-26T18:11:05;102068.03;;;23.94;43.85
71764;BME280;59602;52.142;5.408;2023-06-26T18:13:48;102069.56;;;23.82;44.27
71764;BME280;59602;52.142;5.408;2023-06-26T18:16:19;102067.69;;;23.79;44.83
71764;BME280;59602;52.142;5.408;2023-06-26T18:19:21;102079.41;;;23.70;44.89
71764;BME280;59602;52.142;5.408;2023-06-26T18:22:13;102074.84;;;23.63;44.04
71764;BME280;59602;52.142;5.408;2023-06-26T18:24:44;102077.41;;;23.58;44.00
71764;BME280;59602;52.142;5.408;2023-06-26T18:27:11;102083.03;;;23.54;44.04
71764;BME280;59602;52.142;5.408;2023-06-26T18:29:38;102090.34;;;23.48;43.87
71764;BME280;59602;52.142;5.408;2023-06-26T18:32:05;102077.63;;;23.34;44.63
71764;BME280;59602;52.142;5.408;2023-06-26T18:34:32;102090.75;;;23.34;44.89
71764;BME280;59602;52.142;5.408;2023-06-26T18:36:59;102091.44;;;23.38;44.63
71764;BME280;59602;52.142;5.408;2023-06-26T18:39:26;102090.47;;;23.28;45.56
71764;BME280;59602;52.142;5.408;2023-06-26T18:42:09;102085.06;;;23.25;45.60
71764;BME280;59602;52.142;5.408;2023-06-26T18:44:54;102081.47;;;23.24;45.44
71764;BME280;59602;52.142;5.408;2023-06-26T18:47:21;102086.75;;;23.35;45.61
71764;BME280;59602;52.142;5.408;2023-06-26T18:49:50;102085.06;;;23.37;45.65
71764;BME280;59602;52.142;5.408;2023-06-26T18:52:21;102078.53;;;23.31;45.27
71764;BME280;59602;52.142;5.408;2023-06-26T18:54:47;102087.06;;;23.08;46.03
71764;BME280;59602;52.142;5.408;2023-06-26T18:57:14;102089.22;;;22.84;46.57
71764;BME280;59602;52.142;5.408;2023-06-26T18:59:40;102092.53;;;22.62;47.76
71764;BME280;59602;52.142;5.408;2023-06-26T19:02:07;102090.09;;;22.48;47.84
71764;BME280;59602;52.142;5.408;2023-06-26T19:04:34;102094.63;;;22.42;48.58
71764;BME280;59602;52.142;5.408;2023-06-26T19:07:02;102091.97;;;22.34;48.82
71764;BME280;59602;52.142;5.408;2023-06-26T19:09:28;102092.91;;;22.28;49.10
71764;BME280;59602;52.142;5.408;2023-06-26T19:11:57;102084.25;;;22.26;48.65
71764;BME280;59602;52.142;5.408;2023-06-26T19:14:25;102098.25;;;22.18;49.03
71764;BME280;59602;52.142;5.408;2023-06-26T19:16:52;102100.66;;;22.16;49.44
71764;BME280;59602;52.142;5.408;2023-06-26T19:19:21;102106.00;;;22.07;50.34
71764;BME280;59602;52.142;5.408;2023-06-26T19:21:48;102111.00;;;21.96;50.43
71764;BME280;59602;52.142;5.408;2023-06-26T19:24:15;102095.25;;;21.93;50.51
71764;BME280;59602;52.142;5.408;2023-06-26T19:26:44;102091.41;;;21.87;50.10
71764;BME280;59602;52.142;5.408;2023-06-26T19:29:11;102100.72;;;21.76;51.23
71764;BME280;59602;52.142;5.408;2023-06-26T19:31:37;102106.69;;;21.75;51.18
71764;BME280;59602;52.142;5.408;2023-06-26T19:34:04;102105.19;;;21.70;51.66
71764;BME280;59602;52.142;5.408;2023-06-26T19:36:32;102113.91;;;21.69;51.58
71764;BME280;59602;52.142;5.408;2023-06-26T19:38:58;102114.06;;;21.62;51.25
71764;BME280;59602;52.142;5.408;2023-06-26T19:41:25;102106.19;;;21.60;52.37
71764;BME280;59602;52.142;5.408;2023-06-26T19:43:52;102118.81;;;21.61;53.59
71764;BME280;59602;52.142;5.408;2023-06-26T19:46:18;102113.00;;;21.55;54.26
71764;BME280;59602;52.142;5.408;2023-06-26T19:48:45;102114.28;;;21.51;54.47
71764;BME280;59602;52.142;5.408;2023-06-26T19:51:11;102116.72;;;21.45;55.77
71764;BME280;59602;52.142;5.408;2023-06-26T19:53:38;102127.50;;;21.40;56.07
71764;BME280;59602;52.142;5.408;2023-06-26T19:56:05;102133.53;;;21.34;55.80
71764;BME280;59602;52.142;5.408;2023-06-26T19:58:31;102132.09;;;21.26;54.14
71764;BME280;59602;52.142;5.408;2023-06-26T20:00:58;102125.06;;;21.22;54.64
71764;BME280;59602;52.142;5.408;2023-06-26T20:03:26;102132.66;;;21.14;55.39
71764;BME280;59602;52.142;5.408;2023-06-26T20:15:55;102138.81;;;21.02;55.15
71764;BME280;59602;52.142;5.408;2023-06-26T20:18:23;102135.69;;;21.00;56.35
71764;BME280;59602;52.142;5.408;2023-06-26T20:20:51;102133.69;;;21.00;56.40
71764;BME280;59602;52.142;5.408;2023-06-26T20:23:18;102130.94;;;21.00;57.23
71764;BME280;59602;52.142;5.408;2023-06-26T20:25:45;102137.25;;;21.01;57.14
71764;BME280;59602;52.142;5.408;2023-06-26T20:28:11;102134.56;;;20.97;57.55
71764;BME280;59602;52.142;5.408;2023-06-26T20:30:38;102133.03;;;20.92;57.11
71764;BME280;59602;52.142;5.408;2023-06-26T20:33:05;102136.22;;;20.91;57.78
71764;BME280;59602;52.142;5.408;2023-06-26T20:35:31;102133.50;;;20.87;56.99
71764;BME280;59602;52.142;5.408;2023-06-26T20:37:59;102134.75;;;20.83;57.35
71764;BME280;59602;52.142;5.408;2023-06-26T20:40:28;102130.84;;;20.80;57.70
71764;BME280;59602;52.142;5.408;2023-06-26T20:42:55;102134.84;;;20.79;58.23
71764;BME280;59602;52.142;5.408;2023-06-26T20:45:22;102130.50;;;20.78;58.53
71764;BME280;59602;52.142;5.408;2023-06-26T20:47:50;102140.81;;;20.74;58.07
71764;BME280;59602;52.142;5.408;2023-06-26T20:50:17;102141.72;;;20.67;58.66
71764;BME280;59602;52.142;5.408;2023-06-26T20:52:45;102137.44;;;20.63;58.98
71764;BME280;59602;52.142;5.408;2023-06-26T20:55:12;102137.09;;;20.61;59.17
71764;BME280;59602;52.142;5.408;2023-06-26T20:57:39;102134.75;;;20.56;59.12
71764;BME280;59602;52.142;5.408;2023-06-26T21:00:08;102133.66;;;20.49;59.16
71764;BME280;59602;52.142;5.408;2023-06-26T21:02:36;102130.94;;;20.46;59.48
71764;BME280;59602;52.142;5.408;2023-06-26T21:05:03;102139.28;;;20.42;59.82
71764;BME280;59602;52.142;5.408;2023-06-26T21:07:30;102133.00;;;20.38;59.30
71764;BME280;59602;52.142;5.408;2023-06-26T21:09:57;102138.59;;;20.35;59.45
71764;BME280;59602;52.142;5.408;2023-06-26T21:12:26;102137.50;;;20.28;59.30
71764;BME280;59602;52.142;5.408;2023-06-26T21:14:54;102135.97;;;20.24;59.67
71764;BME280;59602;52.142;5.408;2023-06-26T21:17:21;102131.22;;;20.24;60.21
71764;BME280;59602;52.142;5.408;2023-06-26T21:19:48;102134.84;;;20.21;60.90
71764;BME280;59602;52.142;5.408;2023-06-26T21:22:14;102127.06;;;20.13;60.85
71764;BME280;59602;52.142;5.408;2023-06-26T21:24:44;102131.91;;;20.05;60.70
71764;BME280;59602;52.142;5.408;2023-06-26T21:27:11;102122.13;;;19.97;61.18
71764;BME280;59602;52.142;5.408;2023-06-26T21:29:37;102119.00;;;19.95;61.78
71764;BME280;59602;52.142;5.408;2023-06-26T21:32:05;102131.66;;;19.92;62.06
71764;BME280;59602;52.142;5.408;2023-06-26T21:34:31;102130.06;;;19.91;61.23
71764;BME280;59602;52.142;5.408;2023-06-26T21:36:58;102126.13;;;19.92;62.08
71764;BME280;59602;52.142;5.408;2023-06-26T21:39:25;102124.56;;;19.91;61.26
71764;BME280;59602;52.142;5.408;2023-06-26T21:41:52;102125.78;;;19.86;61.22
71764;BME280;59602;52.142;5.408;2023-06-26T21:44:18;102122.34;;;19.79;61.40
71764;BME280;59602;52.142;5.408;2023-06-26T21:46:45;102124.34;;;19.75;61.73
71764;BME280;59602;52.142;5.408;2023-06-26T21:49:11;102124.81;;;19.69;61.84
71764;BME280;59602;52.142;5.408;2023-06-26T21:51:38;102123.25;;;19.65;62.10
71764;BME280;59602;52.142;5.408;2023-06-26T21:54:05;102128.06;;;19.57;62.17
71764;BME280;59602;52.142;5.408;2023-06-26T21:56:31;102124.16;;;19.51;62.35
71764;BME280;59602;52.142;5.408;2023-06-26T21:58:58;102129.38;;;19.45;62.65
71764;BME280;59602;52.142;5.408;2023-06-26T22:01:24;102122.72;;;19.39;62.53
71764;BME280;59602;52.142;5.408;2023-06-26T22:03:51;102128.69;;;19.34;62.91
71764;BME280;59602;52.142;5.408;2023-06-26T22:06:18;102137.75;;;19.31;63.78
71764;BME280;59602;52.142;5.408;2023-06-26T22:08:45;102131.06;;;19.32;65.02
71764;BME280;59602;52.142;5.408;2023-06-26T22:11:11;102126.00;;;19.27;64.93
71764;BME280;59602;52.142;5.408;2023-06-26T22:13:38;102125.66;;;19.21;64.91
71764;BME280;59602;52.142;5.408;2023-06-26T22:16:05;102119.75;;;19.19;65.47
71764;BME280;59602;52.142;5.408;2023-06-26T22:18:32;102124.50;;;19.15;64.32
71764;BME280;59602;52.142;5.408;2023-06-26T22:20:59;102119.03;;;19.12;64.34
71764;BME280;59602;52.142;5.408;2023-06-26T22:23:26;102119.84;;;19.08;65.35
71764;BME280;59602;52.142;5.408;2023-06-26T22:25:52;102126.97;;;19.06;65.52
71764;BME280;59602;52.142;5.408;2023-06-26T22:28:19;102122.28;;;19.03;64.95
71764;BME280;59602;52.142;5.408;2023-06-26T22:30:45;102116.78;;;18.99;65.46
71764;BME280;59602;52.142;5.408;2023-06-26T22:33:12;102118.38;;;18.93;65.01
71764;BME280;59602;52.142;5.408;2023-06-26T22:35:39;102113.72;;;18.86;65.83
71764;BME280;59602;52.142;5.408;2023-06-26T22:38:08;102114.16;;;18.81;65.76
71764;BME280;59602;52.142;5.408;2023-06-26T22:40:34;102110.25;;;18.79;65.87
71764;BME280;59602;52.142;5.408;2023-06-26T22:43:01;102101.56;;;18.77;66.15
71764;BME280;59602;52.142;5.408;2023-06-26T22:45:32;102114.97;;;18.75;66.22
71764;BME280;59602;52.142;5.408;2023-06-26T22:47:59;102121.69;;;18.70;66.42
71764;BME280;59602;52.142;5.408;2023-06-26T22:50:26;102111.50;;;18.67;66.27
71764;BME280;59602;52.142;5.408;2023-06-26T22:52:53;102112.28;;;18.64;66.26
71764;BME280;59602;52.142;5.408;2023-06-26T22:55:20;102114.66;;;18.62;66.74
71764;BME280;59602;52.142;5.408;2023-06-26T22:57:47;102109.94;;;18.62;66.85
71764;BME280;59602;52.142;5.408;2023-06-26T23:00:14;102109.56;;;18.57;66.95
71764;BME280;59602;52.142;5.408;2023-06-26T23:02:41;102102.09;;;18.57;67.22
71764;BME280;59602;52.142;5.408;2023-06-26T23:05:08;102104.13;;;18.50;66.62
71764;BME280;59602;52.142;5.408;2023-06-26T23:07:36;102106.94;;;18.42;66.80
71764;BME280;59602;52.142;5.408;2023-06-26T23:10:04;102106.16;;;18.35;67.34
71764;BME280;59602;52.142;5.408;2023-06-26T23:12:31;102102.28;;;18.29;67.49
71764;BME280;59602;52.142;5.408;2023-06-26T23:14:58;102105.44;;;18.23;67.51
71764;BME280;59602;52.142;5.408;2023-06-26T23:17:24;102109.44;;;18.15;67.70
71764;BME280;59602;52.142;5.408;2023-06-26T23:19:52;102109.44;;;18.08;67.92
71764;BME280;59602;52.142;5.408;2023-06-26T23:22:19;102107.88;;;18.07;68.06
71764;BME280;59602;52.142;5.408;2023-06-26T23:24:47;102109.47;;;18.04;67.86
71764;BME280;59602;52.142;5.408;2023-06-26T23:27:14;102096.09;;;17.99;68.19
71764;BME280;59602;52.142;5.408;2023-06-26T23:29:41;102104.78;;;17.94;68.30
71764;BME280;59602;52.142;5.408;2023-06-26T23:32:09;102105.59;;;17.91;68.51
71764;BME280;59602;52.142;5.408;2023-06-26T23:34:37;102095.75;;;17.90;68.34
71764;BME280;59602;52.142;5.408;2023-06-26T23:37:08;102097.34;;;17.88;68.97
71764;BME280;59602;52.142;5.408;2023-06-26T23:39:35;102087.91;;;17.85;69.23
71764;BME280;59602;52.142;5.408;2023-06-26T23:42:06;102097.38;;;17.84;69.46
71764;BME280;59602;52.142;5.408;2023-06-26T23:44:33;102095.41;;;17.84;69.82
71764;BME280;59602;52.142;5.408;2023-06-26T23:47:01;102097.75;;;17.86;69.93
71764;BME280;59602;52.142;5.408;2023-06-26T23:49:30;102100.09;;;17.88;70.06
71764;BME280;59602;52.142;5.408;2023-06-26T23:51:57;102098.13;;;17.88;70.12
71764;BME280;59602;52.142;5.408;2023-06-26T23:54:24;102099.31;;;17.87;70.39
71764;BME280;59602;52.142;5.408;2023-06-26T23:56:51;102091.84;;;17.80;70.95
71764;BME280;59602;52.142;5.408;2023-06-26T23:59:18;102099.72;;;17.78;70.68
